createdAt,value
2019-02-21T00:01:17.102Z,71.70
2019-02-21T00:03:45.820Z,73.70
2019-02-21T00:06:14.545Z,74.90
2019-02-21T00:08:43.292Z,75.90
2019-02-21T00:11:12.015Z,76.00
2019-02-21T00:13:40.730Z,76.60
2019-02-21T00:16:09.444Z,76.80
2019-02-21T00:18:38.928Z,76.00
2019-02-21T00:21:07.675Z,76.10
2019-02-21T00:23:36.323Z,76.30
2019-02-21T00:26:05.036Z,75.60
2019-02-21T00:28:34.623Z,75.90
2019-02-21T00:31:03.410Z,75.20
2019-02-21T00:33:32.218Z,74.50
2019-02-21T00:36:00.880Z,74.90
2019-02-21T00:38:30.451Z,75.80
2019-02-21T00:40:59.180Z,76.90
2019-02-21T00:43:27.895Z,76.10
2019-02-21T00:45:56.636Z,75.30
2019-02-21T00:48:25.349Z,75.70
2019-02-21T00:50:54.060Z,75.80
2019-02-21T00:53:22.791Z,76.10
2019-02-21T00:55:51.499Z,75.40
2019-02-21T00:58:20.298Z,74.80
2019-02-21T01:00:48.975Z,73.90
2019-02-21T01:03:17.694Z,74.30
2019-02-21T01:05:46.435Z,73.80
2019-02-21T01:08:15.144Z,74.80
2019-02-21T01:10:43.883Z,75.60
2019-02-21T01:13:12.599Z,75.30
2019-02-21T01:15:41.322Z,76.30
2019-02-21T01:18:10.042Z,76.30
2019-02-21T01:20:38.756Z,75.20
2019-02-21T01:23:07.492Z,73.30
2019-02-21T01:25:36.210Z,73.20
2019-02-21T01:28:04.922Z,73.00
2019-02-21T01:30:33.638Z,73.70
2019-02-21T01:33:02.357Z,73.90
2019-02-21T01:35:31.353Z,74.30
2019-02-21T01:38:00.067Z,74.80
2019-02-21T01:40:29.667Z,75.50
2019-02-21T01:42:58.379Z,75.30
2019-02-21T01:45:27.091Z,76.50
2019-02-21T01:47:55.838Z,79.50
2019-02-21T01:50:24.548Z,80.00
2019-02-21T01:52:53.262Z,81.00
2019-02-21T01:55:21.985Z,81.80
2019-02-21T01:57:50.706Z,82.20
2019-02-21T02:00:19.448Z,87.50
2019-02-21T02:02:48.160Z,90.40
2019-02-21T02:05:16.872Z,90.80
2019-02-21T02:07:45.602Z,90.90
2019-02-21T02:10:14.304Z,90.90
2019-02-21T02:12:43.055Z,90.30
2019-02-21T02:15:11.793Z,88.90
2019-02-21T02:17:40.492Z,87.20
2019-02-21T02:20:10.007Z,85.60
2019-02-21T02:22:38.723Z,83.20
2019-02-21T02:25:07.484Z,82.60
2019-02-21T02:27:36.196Z,82.20
2019-02-21T02:30:06.587Z,81.20
2019-02-21T02:32:35.307Z,79.90
2019-02-21T02:35:04.812Z,78.80
2019-02-21T02:37:33.568Z,76.90
2019-02-21T02:40:02.209Z,76.10
2019-02-21T02:42:31.821Z,74.80
2019-02-21T02:45:00.536Z,75.90
2019-02-21T02:47:29.249Z,75.60
2019-02-21T02:49:58.023Z,76.20
2019-02-21T02:52:26.715Z,76.30
2019-02-21T02:54:55.424Z,76.40
2019-02-21T02:57:24.152Z,76.50
2019-02-21T02:59:52.867Z,77.50
2019-02-21T03:02:21.615Z,77.80
2019-02-21T03:04:50.402Z,77.60
2019-02-21T03:07:19.093Z,77.90
2019-02-21T03:09:47.809Z,77.80
2019-02-21T03:12:16.540Z,77.70
2019-02-21T03:14:45.279Z,77.70
2019-02-21T03:17:13.982Z,77.40
2019-02-21T03:19:42.692Z,78.00
2019-02-21T03:22:11.430Z,77.60
2019-02-21T03:24:40.132Z,77.70
2019-02-21T03:27:08.870Z,77.20
2019-02-21T03:29:37.585Z,76.80
2019-02-21T03:32:06.293Z,76.80
2019-02-21T03:34:35.008Z,76.80
2019-02-21T03:37:03.726Z,77.70
2019-02-21T03:39:32.461Z,77.20
2019-02-21T03:42:01.175Z,76.80
2019-02-21T03:44:30.830Z,76.80
2019-02-21T03:46:59.538Z,77.30
2019-02-21T03:49:28.248Z,77.60
2019-02-21T03:51:56.996Z,77.60
2019-02-21T03:54:25.710Z,78.20
2019-02-21T03:57:13.724Z,79.40
2019-02-21T03:59:42.484Z,79.10
2019-02-21T04:02:11.556Z,79.20
2019-02-21T04:04:40.302Z,79.50
2019-02-21T04:07:09.003Z,79.60
2019-02-21T04:09:37.715Z,80.30
2019-02-21T04:12:06.451Z,80.50
2019-02-21T04:14:36.773Z,80.00
2019-02-21T04:17:05.619Z,80.50
2019-02-21T04:19:34.347Z,80.70
2019-02-21T04:22:03.067Z,81.00
2019-02-21T04:24:31.775Z,81.00
2019-02-21T04:27:00.495Z,81.30
2019-02-21T04:29:30.857Z,81.10
2019-02-21T04:31:59.564Z,81.10
2019-02-21T04:34:28.280Z,81.60
2019-02-21T04:36:56.996Z,81.60
2019-02-21T04:39:25.708Z,81.40
2019-02-21T04:41:54.469Z,81.80
2019-02-21T04:44:23.155Z,81.50
2019-02-21T04:46:51.861Z,81.00
2019-02-21T04:49:20.580Z,81.70
2019-02-21T04:51:49.307Z,81.60
2019-02-21T04:54:18.012Z,82.30
2019-02-21T04:56:46.732Z,83.00
2019-02-21T04:59:15.458Z,84.10
2019-02-21T05:01:44.169Z,84.00
2019-02-21T05:04:12.892Z,84.30
2019-02-21T05:06:41.547Z,84.70
2019-02-21T05:09:10.288Z,83.80
2019-02-21T05:11:38.974Z,83.90
2019-02-21T05:14:07.692Z,84.60
2019-02-21T05:16:36.416Z,84.70
2019-02-21T05:19:05.125Z,85.50
2019-02-21T05:21:33.837Z,84.60
2019-02-21T05:24:02.559Z,84.60
2019-02-21T05:26:42.140Z,84.80
2019-02-21T05:29:12.487Z,84.90
2019-02-21T05:31:42.884Z,85.70
2019-02-21T05:34:13.240Z,86.20
2019-02-21T05:36:43.524Z,85.60
2019-02-21T05:39:16.966Z,85.80
2019-02-21T05:41:50.302Z,86.40
2019-02-21T05:44:23.676Z,86.70
2019-02-21T05:46:54.031Z,87.30
2019-02-21T05:49:33.315Z,87.30
2019-02-21T05:52:12.369Z,87.00
2019-02-21T05:54:42.764Z,87.30
2019-02-21T05:57:13.125Z,86.40
2019-02-21T05:59:43.476Z,86.40
2019-02-21T06:02:20.133Z,86.00
2019-02-21T06:04:53.202Z,86.10
2019-02-21T06:07:29.028Z,85.50
2019-02-21T06:10:02.152Z,85.80
2019-02-21T06:12:49.131Z,84.80
2019-02-21T06:15:37.340Z,84.70
2019-02-21T06:18:19.879Z,84.60
2019-02-21T06:20:57.519Z,83.90
2019-02-21T06:23:39.545Z,84.30
2019-02-21T06:26:15.077Z,84.60
2019-02-21T06:28:48.384Z,84.40
2019-02-21T06:31:18.169Z,83.90
2019-02-21T06:33:49.394Z,83.90
2019-02-21T06:36:17.254Z,84.50
2019-02-21T06:38:45.964Z,83.80
2019-02-21T06:41:14.716Z,83.50
2019-02-21T06:43:43.437Z,82.20
2019-02-21T06:46:13.722Z,81.70
2019-02-21T06:48:42.681Z,80.80
2019-02-21T06:51:11.400Z,80.70
2019-02-21T06:53:40.170Z,80.40
2019-02-21T06:56:08.879Z,80.10
2019-02-21T06:58:37.604Z,79.50
2019-02-21T07:01:06.327Z,80.00
2019-02-21T07:03:35.052Z,79.60
2019-02-21T07:06:03.803Z,79.10
2019-02-21T07:08:32.509Z,78.60
2019-02-21T07:11:06.273Z,78.10
2019-02-21T07:13:31.600Z,78.10
2019-02-21T07:16:00.325Z,77.90
2019-02-21T07:18:29.125Z,76.40
2019-02-21T07:20:57.780Z,76.30
2019-02-21T07:23:27.271Z,76.10
2019-02-21T07:25:57.464Z,76.30
2019-02-21T07:28:27.838Z,75.70
2019-02-21T07:30:56.727Z,75.00
2019-02-21T07:33:28.823Z,74.80
2019-02-21T07:35:55.831Z,73.60
2019-02-21T07:38:24.550Z,73.30
2019-02-21T07:40:53.286Z,71.00
2019-02-21T07:43:24.721Z,65.70
2019-02-21T07:45:52.388Z,62.00
2019-02-21T07:48:21.104Z,59.70
2019-02-21T07:51:09.095Z,57.20
2019-02-21T07:53:37.812Z,55.50
2019-02-21T07:56:06.549Z,55.50
2019-02-21T07:58:35.263Z,52.10
2019-02-21T08:01:03.980Z,50.30
2019-02-21T08:03:43.967Z,48.60
2019-02-21T08:06:03.061Z,50.50
2019-02-21T08:08:32.542Z,50.30
2019-02-21T08:11:01.426Z,50.40
2019-02-21T08:13:30.148Z,50.60
2019-02-21T08:15:58.867Z,50.20
2019-02-21T08:18:28.505Z,50.20
2019-02-21T08:20:57.251Z,49.70
2019-02-21T08:23:26.029Z,50.20
2019-02-21T08:25:54.676Z,49.60
2019-02-21T08:28:23.388Z,50.00
2019-02-21T08:30:52.100Z,50.10
2019-02-21T08:33:31.440Z,47.40
2019-02-21T08:36:00.162Z,47.90
2019-02-21T08:38:28.915Z,48.70
2019-02-21T08:40:57.624Z,48.60
2019-02-21T08:43:26.328Z,48.50
2019-02-21T08:45:57.477Z,49.10
2019-02-21T08:48:25.407Z,49.40
2019-02-21T08:50:54.153Z,49.20
2019-02-21T08:53:22.874Z,49.30
2019-02-21T08:55:51.600Z,48.90
2019-02-21T08:58:20.308Z,51.50
2019-02-21T09:00:49.103Z,52.30
2019-02-21T09:03:18.220Z,54.70
2019-02-21T09:05:46.939Z,55.20
2019-02-21T09:08:16.779Z,53.50
2019-02-21T09:10:45.676Z,51.80
2019-02-21T09:13:14.387Z,53.50
2019-02-21T09:15:43.153Z,51.60
2019-02-21T09:18:11.864Z,53.70
2019-02-21T09:20:40.580Z,53.20
2019-02-21T09:23:09.308Z,52.20
2019-02-21T09:25:38.015Z,51.70
2019-02-21T09:28:06.773Z,51.70
2019-02-21T09:30:35.487Z,52.00
2019-02-21T09:33:04.216Z,51.50
2019-02-21T09:37:53.899Z,52.20
2019-02-21T09:40:22.643Z,49.60
2019-02-21T09:42:51.432Z,48.80
2019-02-21T09:45:20.140Z,49.10
2019-02-21T09:47:48.862Z,48.90
2019-02-21T09:50:17.572Z,50.20
2019-02-21T09:52:46.275Z,50.80
2019-02-21T09:55:16.993Z,49.40
2019-02-21T09:57:45.715Z,48.20
2019-02-21T10:00:21.776Z,47.80
2019-02-21T10:02:53.434Z,49.80
2019-02-21T10:05:20.860Z,49.40
2019-02-21T10:07:49.584Z,47.00
2019-02-21T10:10:19.774Z,48.50
2019-02-21T10:12:48.515Z,48.10
2019-02-21T10:15:17.425Z,48.80
2019-02-21T10:17:46.133Z,50.30
2019-02-21T10:20:17.163Z,52.90
2019-02-21T10:22:45.870Z,55.80
2019-02-21T10:25:22.788Z,53.00
2019-02-21T10:27:50.581Z,52.80
2019-02-21T10:30:21.005Z,54.50
2019-02-21T10:32:49.714Z,55.60
2019-02-21T10:35:18.431Z,57.20
2019-02-21T10:37:47.172Z,58.00
2019-02-21T10:40:16.304Z,57.70
2019-02-21T10:42:45.021Z,57.50
2019-02-21T10:45:16.111Z,56.60
2019-02-21T10:47:44.818Z,56.10
2019-02-21T10:50:15.897Z,56.30
2019-02-21T10:52:44.612Z,55.60
2019-02-21T10:55:13.722Z,55.60
2019-02-21T10:57:45.165Z,57.50
2019-02-21T11:00:18.127Z,54.40
2019-02-21T11:02:46.959Z,53.20
2019-02-21T11:05:15.680Z,53.20
2019-02-21T11:07:44.411Z,52.10
2019-02-21T11:10:15.359Z,51.80
2019-02-21T11:12:44.079Z,53.50
2019-02-21T11:15:15.242Z,51.40
2019-02-21T11:17:43.955Z,50.80
2019-02-21T11:20:14.976Z,50.50
2019-02-21T11:22:43.702Z,48.40
2019-02-21T11:25:12.640Z,49.70
2019-02-21T11:27:41.385Z,50.90
2019-02-21T11:30:15.709Z,49.30
2019-02-21T11:32:44.422Z,48.40
2019-02-21T11:35:13.746Z,48.20
2019-02-21T11:37:45.790Z,50.40
2019-02-21T11:40:16.976Z,51.90
2019-02-21T11:42:46.308Z,47.80
2019-02-21T11:45:19.087Z,47.70
2019-02-21T11:47:47.817Z,48.30
2019-02-21T11:50:18.388Z,46.90
2019-02-21T11:52:47.164Z,44.00
2019-02-21T11:55:23.464Z,45.30
2019-02-21T11:57:52.316Z,45.30
2019-02-21T12:00:26.236Z,44.10
2019-02-21T12:02:54.960Z,43.20
2019-02-21T12:05:31.892Z,43.10
2019-02-21T12:07:54.348Z,41.60
2019-02-21T12:10:23.083Z,41.60
2019-02-21T12:12:51.806Z,42.80
2019-02-21T12:15:20.515Z,42.70
2019-02-21T12:17:49.242Z,40.90
2019-02-21T12:20:19.251Z,41.50
2019-02-21T12:22:48.408Z,41.50
2019-02-21T12:25:18.831Z,41.80
2019-02-21T12:27:47.549Z,43.00
2019-02-21T12:30:18.056Z,45.20
2019-02-21T12:32:46.780Z,45.50
2019-02-21T12:35:15.597Z,45.30
2019-02-21T12:37:44.308Z,47.30
2019-02-21T12:40:15.684Z,46.80
2019-02-21T12:42:44.404Z,47.70
2019-02-21T12:45:15.125Z,50.00
2019-02-21T12:47:50.665Z,54.30
2019-02-21T12:50:14.544Z,56.30
2019-02-21T12:52:43.256Z,56.70
2019-02-21T12:55:12.280Z,58.40
2019-02-21T12:57:40.993Z,56.90
2019-02-21T13:00:15.022Z,56.50
2019-02-21T13:02:43.728Z,55.20
2019-02-21T13:05:12.440Z,56.60
2019-02-21T13:07:41.236Z,56.10
2019-02-21T13:10:12.192Z,56.50
2019-02-21T13:12:40.949Z,56.10
2019-02-21T13:15:11.753Z,55.30
2019-02-21T13:17:40.464Z,54.70
2019-02-21T13:20:11.654Z,58.30
2019-02-21T13:22:40.373Z,59.80
2019-02-21T13:25:11.278Z,58.80
2019-02-21T13:27:40.040Z,56.50
2019-02-21T13:30:11.637Z,54.60
2019-02-21T13:32:40.480Z,58.00
2019-02-21T13:35:10.276Z,61.40
2019-02-21T13:37:39.054Z,59.80
2019-02-21T13:40:10.438Z,59.80
2019-02-21T13:42:39.152Z,60.80
2019-02-21T13:45:09.769Z,60.20
2019-02-21T13:47:39.285Z,59.80
2019-02-21T13:50:10.916Z,58.10
2019-02-21T13:52:39.640Z,55.80
2019-02-21T13:55:08.969Z,56.80
2019-02-21T13:57:37.686Z,57.70
2019-02-21T14:00:09.407Z,59.20
2019-02-21T14:02:38.152Z,58.10
2019-02-21T14:05:07.765Z,58.60
2019-02-21T14:07:37.345Z,58.50
2019-02-21T14:10:11.419Z,56.90
2019-02-21T14:12:40.132Z,57.60
2019-02-21T14:15:26.573Z,57.80
2019-02-21T14:17:55.301Z,58.60
2019-02-21T14:20:23.999Z,58.20
2019-02-21T14:22:52.760Z,58.40
2019-02-21T14:25:21.400Z,59.30
2019-02-21T14:27:50.130Z,59.00
2019-02-21T14:30:20.074Z,58.90
2019-02-21T14:32:48.792Z,59.10
2019-02-21T14:35:17.513Z,59.50
2019-02-21T14:37:46.245Z,59.90
2019-02-21T14:40:17.025Z,61.10
2019-02-21T14:42:45.874Z,61.70
2019-02-21T14:45:17.387Z,62.60
2019-02-21T14:47:46.092Z,64.50
2019-02-21T14:50:16.103Z,65.40
2019-02-21T14:52:44.834Z,65.80
2019-02-21T14:55:16.317Z,66.70
2019-02-21T14:57:45.079Z,66.90
2019-02-21T15:00:19.317Z,67.60
2019-02-21T15:02:48.136Z,68.50
2019-02-21T15:05:17.050Z,68.80
2019-02-21T15:07:45.760Z,70.40
2019-02-21T15:10:15.304Z,71.50
2019-02-21T15:12:44.030Z,72.00
2019-02-21T15:15:18.100Z,72.10
2019-02-21T15:17:46.828Z,72.60
2019-02-21T15:20:17.017Z,73.20
2019-02-21T15:22:46.256Z,73.50
2019-02-21T15:25:15.355Z,74.10
2019-02-21T15:27:44.567Z,74.30
2019-02-21T15:30:18.759Z,74.70
2019-02-21T15:32:48.268Z,74.90
2019-02-21T15:35:19.484Z,75.20
2019-02-21T15:37:48.393Z,74.90
2019-02-21T15:40:17.488Z,75.40
2019-02-21T15:42:46.847Z,75.00
2019-02-21T15:45:24.377Z,75.30
2019-02-21T15:47:53.788Z,74.80
2019-02-21T15:50:22.984Z,74.50
2019-02-21T15:52:53.692Z,74.50
2019-02-21T15:55:23.237Z,73.70
2019-02-21T15:58:03.351Z,73.50
2019-02-21T16:00:27.317Z,73.10
2019-02-21T16:02:56.464Z,73.00
2019-02-21T16:05:25.688Z,72.80
2019-02-21T16:07:55.013Z,72.80
2019-02-21T16:10:26.105Z,73.00
2019-02-21T16:12:55.976Z,72.20
2019-02-21T16:15:25.847Z,72.50
2019-02-21T16:17:55.055Z,72.80
2019-02-21T16:20:24.161Z,71.50
2019-02-21T16:22:53.304Z,70.20
2019-02-21T16:25:24.748Z,68.10
2019-02-21T16:27:55.475Z,66.80
2019-02-21T16:30:25.096Z,65.80
2019-02-21T16:32:54.331Z,64.30
2019-02-21T16:35:23.575Z,63.90
2019-02-21T16:37:52.798Z,62.80
2019-02-21T16:40:22.159Z,63.10
2019-02-21T16:42:51.444Z,63.60
2019-02-21T16:45:21.464Z,63.80
2019-02-21T16:47:50.685Z,63.30
2019-02-21T16:50:29.184Z,63.40
2019-02-21T16:52:50.696Z,63.20
2019-02-21T16:55:21.308Z,64.40
2019-02-21T16:57:52.016Z,63.20
2019-02-21T17:00:22.124Z,61.00
2019-02-21T17:02:51.466Z,60.60
2019-02-21T17:05:20.849Z,60.50
2019-02-21T17:07:50.185Z,60.60
2019-02-21T17:10:20.739Z,59.60
2019-02-21T17:12:50.028Z,58.90
2019-02-21T17:15:19.328Z,59.30
2019-02-21T17:17:48.708Z,58.90
2019-02-21T17:20:23.117Z,59.00
2019-02-21T17:22:52.572Z,58.30
2019-02-21T17:25:21.796Z,58.90
2019-02-21T17:27:51.019Z,59.00
2019-02-21T17:30:20.454Z,58.50
2019-02-21T17:32:49.801Z,58.30
2019-02-21T17:35:18.991Z,58.80
2019-02-21T17:37:48.176Z,58.30
2019-02-21T17:40:22.256Z,57.90
2019-02-21T17:42:51.531Z,57.90
2019-02-21T17:45:20.952Z,58.40
2019-02-21T17:47:50.279Z,58.00
2019-02-21T17:50:20.225Z,57.20
2019-02-21T17:52:49.472Z,56.60
2019-02-21T17:55:18.931Z,56.60
2019-02-21T17:57:48.312Z,56.80
2019-02-21T18:00:23.938Z,56.20
2019-02-21T18:02:53.281Z,56.80
2019-02-21T18:05:22.599Z,56.70
2019-02-21T18:07:51.838Z,57.00
2019-02-21T18:10:21.343Z,57.60
2019-02-21T18:12:50.638Z,56.90
2019-02-21T18:15:19.991Z,57.30
2019-02-21T18:17:49.224Z,57.40
2019-02-21T18:20:18.541Z,57.30
2019-02-21T18:22:47.871Z,57.70
2019-02-21T18:25:28.595Z,57.20
2019-02-21T18:27:57.828Z,56.80
2019-02-21T18:30:27.158Z,57.30
2019-02-21T18:32:56.488Z,56.10
2019-02-21T18:35:25.712Z,56.10
2019-02-21T18:37:55.169Z,56.00
2019-02-21T18:40:25.884Z,56.30
2019-02-21T18:42:55.102Z,56.10
2019-02-21T18:45:24.315Z,55.60
2019-02-21T18:47:53.651Z,55.50
2019-02-21T18:50:23.008Z,55.10
2019-02-21T18:52:52.343Z,55.10
2019-02-21T18:55:21.440Z,54.90
2019-02-21T18:57:50.756Z,54.20
2019-02-21T19:00:24.805Z,53.90
2019-02-21T19:02:54.136Z,52.90
2019-02-21T19:05:23.560Z,53.90
2019-02-21T19:08:03.323Z,54.00
2019-02-21T19:10:24.144Z,53.00
2019-02-21T19:12:52.886Z,52.40
2019-02-21T19:15:22.297Z,52.70
2019-02-21T19:17:51.004Z,52.10
2019-02-21T19:20:21.000Z,52.30
2019-02-21T19:22:49.647Z,53.00
2019-02-21T19:25:18.472Z,53.10
2019-02-21T19:27:48.923Z,53.00
2019-02-21T19:30:25.647Z,53.20
2019-02-21T19:32:53.772Z,52.90
2019-02-21T19:35:22.588Z,53.70
2019-02-21T19:37:51.312Z,53.10
2019-02-21T19:40:20.113Z,54.00
2019-02-21T19:42:48.896Z,54.00
2019-02-21T19:45:17.628Z,54.00
2019-02-21T19:47:46.368Z,54.10
2019-02-21T19:50:15.112Z,54.40
2019-02-21T19:52:43.827Z,54.10
2019-02-21T19:55:12.947Z,54.30
2019-02-21T19:57:41.736Z,54.70
2019-02-21T20:00:14.515Z,55.30
2019-02-21T20:02:43.216Z,55.20
2019-02-21T20:05:11.953Z,54.80
2019-02-21T20:07:40.688Z,55.00
2019-02-21T20:10:09.692Z,55.40
2019-02-21T20:12:38.474Z,55.50
2019-02-21T20:15:09.187Z,55.40
2019-02-21T20:17:40.772Z,55.60
2019-02-21T20:20:21.071Z,55.70
2019-02-21T20:22:49.826Z,56.10
2019-02-21T20:25:18.611Z,56.10
2019-02-21T20:27:47.327Z,56.30
2019-02-21T20:30:17.454Z,56.00
2019-02-21T20:32:46.171Z,55.60
2019-02-21T20:35:15.528Z,55.60
2019-02-21T20:37:44.251Z,55.60
2019-02-21T20:40:13.082Z,56.00
2019-02-21T20:42:41.797Z,56.40
2019-02-21T20:45:12.276Z,56.70
2019-02-21T20:47:41.029Z,57.30
2019-02-21T20:50:12.031Z,57.40
2019-02-21T20:52:40.931Z,57.80
2019-02-21T20:55:12.644Z,58.40
2019-02-21T20:57:41.360Z,57.70
2019-02-21T21:00:15.835Z,57.60
2019-02-21T21:02:44.653Z,58.00
2019-02-21T21:05:13.772Z,58.20
2019-02-21T21:07:42.592Z,58.30
2019-02-21T21:10:16.043Z,58.90
2019-02-21T21:12:44.816Z,58.70
2019-02-21T21:15:14.700Z,59.10
2019-02-21T21:17:43.512Z,59.40
2019-02-21T21:20:17.391Z,59.40
2019-02-21T21:22:46.399Z,59.90
2019-02-21T21:25:18.764Z,59.90
2019-02-21T21:27:47.499Z,59.90
2019-02-21T21:30:17.617Z,60.10
2019-02-21T21:32:46.332Z,60.20
2019-02-21T21:35:15.050Z,60.20
2019-02-21T21:37:43.816Z,61.00
2019-02-21T21:40:17.856Z,60.80
2019-02-21T21:42:46.572Z,60.80
2019-02-21T21:45:16.683Z,61.30
2019-02-21T21:47:45.420Z,62.00
2019-02-21T21:50:19.087Z,62.00
2019-02-21T21:52:47.796Z,62.30
2019-02-21T21:55:16.513Z,62.50
2019-02-21T21:57:45.289Z,62.30
2019-02-21T22:00:18.043Z,62.30
2019-02-21T22:02:47.010Z,62.30
2019-02-21T22:05:15.731Z,62.60
2019-02-21T22:07:44.445Z,63.70
2019-02-21T22:10:14.261Z,64.30
2019-02-21T22:12:42.981Z,64.90
2019-02-21T22:15:17.644Z,64.50
2019-02-21T22:17:46.296Z,64.10
2019-02-21T22:20:15.008Z,64.20
2019-02-21T22:22:43.736Z,64.90
2019-02-21T22:25:13.544Z,64.10
2019-02-21T22:27:42.495Z,63.70
2019-02-21T22:30:16.598Z,64.80
2019-02-21T22:32:45.316Z,65.10
2019-02-21T22:35:14.035Z,64.50
2019-02-21T22:37:42.752Z,64.60
2019-02-21T22:40:16.732Z,64.20
2019-02-21T22:42:45.452Z,64.30
2019-02-21T22:45:14.374Z,64.10
2019-02-21T22:47:43.105Z,64.40
2019-02-21T22:50:16.745Z,63.90
2019-02-21T22:52:45.476Z,64.20
2019-02-21T22:55:14.192Z,64.30
2019-02-21T22:57:42.915Z,64.40
2019-02-21T23:00:31.019Z,64.50
2019-02-21T23:03:00.513Z,65.00
2019-02-21T23:05:48.713Z,64.30
2019-02-21T23:08:20.373Z,64.00
2019-02-21T23:10:49.094Z,63.70
2019-02-21T23:13:17.808Z,63.70
2019-02-21T23:15:46.559Z,63.30
2019-02-21T23:18:15.268Z,63.10
2019-02-21T23:20:43.980Z,63.30
2019-02-21T23:23:12.700Z,63.20
2019-02-21T23:25:41.625Z,63.90
2019-02-21T23:28:10.362Z,63.40
2019-02-21T23:30:39.076Z,63.70
2019-02-21T23:33:07.728Z,63.50
2019-02-21T23:35:36.444Z,63.90
2019-02-21T23:38:05.158Z,64.20
2019-02-21T23:40:33.918Z,64.10
2019-02-21T23:43:02.627Z,64.20
2019-02-21T23:45:31.337Z,64.00
2019-02-21T23:48:00.056Z,63.60
2019-02-21T23:50:28.768Z,65.00
2019-02-21T23:52:57.516Z,64.10
2019-02-21T23:55:26.161Z,64.70
2019-02-21T23:57:54.868Z,64.40
